createdAt,value
2018-07-02T00:04:26.892Z,101581.14
2018-07-02T00:09:20.005Z,101582.05
2018-07-02T00:14:13.044Z,101579.48
2018-07-02T00:19:06.059Z,101573.15
2018-07-02T00:23:59.089Z,101569.73
2018-07-02T00:28:52.405Z,101576.34
2018-07-02T00:33:45.408Z,101574.80
2018-07-02T00:38:38.498Z,101573.78
2018-07-02T00:43:31.608Z,101568.48
2018-07-02T00:48:24.644Z,101560.20
2018-07-02T00:53:17.619Z,101555.11
2018-07-02T00:58:10.619Z,101548.80
2018-07-02T01:03:03.694Z,101553.03
2018-07-02T01:07:56.732Z,101547.72
2018-07-02T01:12:49.791Z,101556.36
2018-07-02T01:17:42.790Z,101558.72
2018-07-02T01:22:35.752Z,101554.61
2018-07-02T01:27:33.208Z,101551.09
2018-07-02T01:32:26.220Z,101542.41
2018-07-02T01:37:19.166Z,101536.32
2018-07-02T01:42:12.141Z,101526.77
2018-07-02T01:47:05.347Z,101532.62
2018-07-02T01:51:58.379Z,101537.86
2018-07-02T01:56:51.356Z,101550.86
2018-07-02T02:01:44.342Z,101556.82
2018-07-02T02:06:37.387Z,101556.27
2018-07-02T02:11:30.330Z,101570.81
2018-07-02T02:16:23.368Z,101569.02
2018-07-02T02:21:16.345Z,101571.15
2018-07-02T02:26:09.334Z,101572.75
2018-07-02T02:31:02.359Z,101574.00
2018-07-02T02:35:55.296Z,101571.97
2018-07-02T02:40:48.273Z,101561.37
2018-07-02T02:45:41.233Z,101555.08
2018-07-02T02:50:34.269Z,101551.33
2018-07-02T02:55:27.242Z,101545.68
2018-07-02T03:00:20.322Z,101539.63
2018-07-02T03:05:13.389Z,101540.82
2018-07-02T03:10:06.397Z,101528.49
2018-07-02T03:14:59.464Z,101535.04
2018-07-02T03:19:52.445Z,101536.91
2018-07-02T03:24:45.543Z,101540.89
2018-07-02T03:29:38.662Z,101531.08
2018-07-02T03:34:31.692Z,101530.35
2018-07-02T03:39:24.648Z,101529.83
2018-07-02T03:44:17.811Z,101525.47
2018-07-02T03:49:10.912Z,101527.12
2018-07-02T03:54:04.019Z,101532.13
2018-07-02T03:58:57.035Z,101532.55
2018-07-02T04:03:50.102Z,101529.94
2018-07-02T04:08:43.096Z,101524.17
2018-07-02T04:13:36.260Z,101527.22
2018-07-02T04:18:29.247Z,101528.96
2018-07-02T04:23:22.222Z,101534.27
2018-07-02T04:28:15.191Z,101532.34
2018-07-02T04:33:08.257Z,101536.15
2018-07-02T04:38:01.315Z,101539.14
2018-07-02T04:42:54.357Z,101542.64
2018-07-02T04:47:47.466Z,101540.20
2018-07-02T04:52:40.649Z,101537.25
2018-07-02T04:57:33.622Z,101531.20
2018-07-02T05:02:26.589Z,101531.94
2018-07-02T05:07:19.718Z,101530.40
2018-07-02T05:12:12.790Z,101528.13
2018-07-02T05:17:06.057Z,101530.73
2018-07-02T05:21:59.076Z,101526.58
2018-07-02T05:26:52.238Z,101530.02
2018-07-02T05:31:45.304Z,101529.20
2018-07-02T05:36:38.765Z,101528.39
2018-07-02T05:41:32.199Z,101523.97
2018-07-02T05:46:25.210Z,101522.55
2018-07-02T05:51:18.201Z,101523.00
2018-07-02T05:56:11.250Z,101525.70
2018-07-02T06:01:04.326Z,101520.80
2018-07-02T06:05:57.384Z,101522.72
2018-07-02T06:10:50.388Z,101508.91
2018-07-02T06:15:43.508Z,101521.24
2018-07-02T06:20:36.637Z,101506.92
2018-07-02T06:25:29.738Z,101508.98
2018-07-02T06:30:22.775Z,101514.55
2018-07-02T06:35:15.800Z,101512.22
2018-07-02T06:40:08.913Z,101511.20
2018-07-02T06:45:01.996Z,101520.86
2018-07-02T06:49:55.103Z,101515.92
2018-07-02T06:54:48.104Z,101510.86
2018-07-02T06:59:41.270Z,101505.27
2018-07-02T07:04:34.493Z,101507.97
2018-07-02T07:09:27.389Z,101508.23
2018-07-02T07:14:20.395Z,101507.90
2018-07-02T07:19:13.670Z,101512.76
2018-07-02T07:24:06.702Z,101511.69
2018-07-02T07:29:00.998Z,101514.27
2018-07-02T07:33:54.039Z,101513.27
2018-07-02T07:38:47.035Z,101505.59
2018-07-02T07:43:40.060Z,101507.45
2018-07-02T07:48:33.069Z,101509.31
2018-07-02T07:53:26.135Z,101508.11
2018-07-02T07:58:19.138Z,101512.91
2018-07-02T08:03:12.325Z,101512.64
2018-07-02T08:08:05.632Z,101501.61
2018-07-02T08:12:59.800Z,101491.34
2018-07-02T08:17:52.926Z,101486.64
2018-07-02T08:22:45.986Z,101474.75
2018-07-02T08:27:40.196Z,101480.94
2018-07-02T08:32:33.206Z,101475.33
2018-07-02T08:37:26.645Z,101465.39
2018-07-02T08:42:19.811Z,101463.23
2018-07-02T08:47:12.888Z,101459.84
2018-07-02T08:52:06.475Z,101466.84
2018-07-02T08:56:59.727Z,101462.59
2018-07-02T09:01:52.883Z,101456.56
2018-07-02T09:06:46.251Z,101440.69
2018-07-02T09:11:40.339Z,101441.73
2018-07-02T09:16:33.437Z,101434.03
2018-07-02T09:21:34.648Z,101436.80
2018-07-02T09:26:27.691Z,101426.06
2018-07-02T09:31:20.594Z,101423.30
2018-07-02T09:36:13.708Z,101422.12
2018-07-02T09:41:06.706Z,101421.48
2018-07-02T09:45:59.894Z,101414.21
2018-07-02T09:50:52.845Z,101426.13
2018-07-02T09:55:45.843Z,101420.89
2018-07-02T10:00:39.037Z,101426.98
2018-07-02T10:05:32.032Z,101431.34
2018-07-02T10:10:25.021Z,101421.34
2018-07-02T10:15:18.113Z,101422.86
2018-07-02T10:20:11.271Z,101423.73
2018-07-02T10:25:04.562Z,101425.38
2018-07-02T10:29:57.592Z,101420.63
2018-07-02T10:34:50.836Z,101419.48
2018-07-02T10:39:43.828Z,101409.38
2018-07-02T10:44:36.921Z,101406.08
2018-07-02T10:49:30.103Z,101393.91
2018-07-02T10:54:23.111Z,101397.98
2018-07-02T10:59:16.115Z,101405.61
2018-07-02T11:04:09.156Z,101403.47
2018-07-02T11:09:02.291Z,101409.54
2018-07-02T11:13:55.631Z,101397.59
2018-07-02T11:18:48.855Z,101389.69
2018-07-02T11:23:41.975Z,101374.69
2018-07-02T11:28:35.041Z,101376.13
2018-07-02T11:33:28.241Z,101381.00
2018-07-02T11:38:21.170Z,101368.54
2018-07-02T11:43:14.243Z,101362.52
2018-07-02T11:48:07.472Z,101359.63
2018-07-02T11:53:00.717Z,101366.11
2018-07-02T11:57:53.813Z,101359.98
2018-07-02T12:02:46.832Z,101351.95
2018-07-02T12:07:39.956Z,101352.18
2018-07-02T12:12:33.323Z,101352.00
2018-07-02T12:17:26.372Z,101355.97
2018-07-02T12:22:19.381Z,101353.36
2018-07-02T12:27:12.398Z,101350.66
2018-07-02T12:32:05.655Z,101350.91
2018-07-02T12:36:58.604Z,101342.09
2018-07-02T12:41:51.620Z,101329.23
2018-07-02T12:46:44.960Z,101329.19
2018-07-02T12:51:38.018Z,101334.78
2018-07-02T12:56:31.076Z,101328.89
2018-07-02T13:01:24.169Z,101312.63
2018-07-02T13:06:17.136Z,101314.30
2018-07-02T13:11:10.135Z,101307.94
2018-07-02T13:16:03.238Z,101299.70
2018-07-02T13:20:56.263Z,101296.89
2018-07-02T13:25:49.377Z,101304.28
2018-07-02T13:30:42.575Z,101304.83
2018-07-02T13:35:35.391Z,101290.73
2018-07-02T13:40:28.440Z,101289.61
2018-07-02T13:45:21.485Z,101290.55
2018-07-02T13:50:14.465Z,101288.35
2018-07-02T13:55:07.738Z,101275.66
2018-07-02T14:00:00.813Z,101265.84
2018-07-02T14:04:53.677Z,101260.14
2018-07-02T14:09:46.702Z,101254.44
2018-07-02T14:14:39.767Z,101253.67
2018-07-02T14:19:32.759Z,101251.94
2018-07-02T14:24:25.690Z,101251.92
2018-07-02T14:29:18.725Z,101245.47
2018-07-02T14:34:11.762Z,101244.72
2018-07-02T14:39:09.572Z,101240.33
2018-07-02T14:44:02.580Z,101240.17
2018-07-02T14:48:55.583Z,101224.63
2018-07-02T14:53:48.768Z,101219.31
2018-07-02T14:58:41.754Z,101221.42
2018-07-02T15:03:34.805Z,101212.52
2018-07-02T15:08:27.742Z,101211.31
2018-07-02T15:13:20.750Z,101216.98
2018-07-02T15:18:14.124Z,101215.03
2018-07-02T15:23:07.365Z,101208.38
2018-07-02T15:28:00.385Z,101209.77
2018-07-02T15:32:53.397Z,101213.97
2018-07-02T15:37:46.377Z,101202.50
2018-07-02T15:42:39.440Z,101204.62
2018-07-02T15:47:32.410Z,101192.27
2018-07-02T15:52:25.500Z,101200.37
2018-07-02T15:57:18.634Z,101199.80
2018-07-02T16:02:11.571Z,101188.31
2018-07-02T16:07:04.681Z,101196.09
2018-07-02T16:11:57.790Z,101195.78
2018-07-02T16:16:50.761Z,101196.48
2018-07-02T16:21:43.761Z,101195.77
2018-07-02T16:26:36.841Z,101190.42
2018-07-02T16:31:29.926Z,101192.53
2018-07-02T16:36:22.933Z,101191.04
2018-07-02T16:41:16.123Z,101195.03
2018-07-02T16:46:09.623Z,101190.39
2018-07-02T16:51:02.677Z,101184.69
2018-07-02T16:55:55.638Z,101176.90
2018-07-02T17:00:48.622Z,101176.40
2018-07-02T17:05:41.624Z,101179.53
2018-07-02T17:10:34.667Z,101178.00
2018-07-02T17:15:27.689Z,101175.06
2018-07-02T17:20:20.742Z,101166.29
2018-07-02T17:25:13.888Z,101173.03
2018-07-02T17:30:08.268Z,101163.70
2018-07-02T17:35:01.317Z,101166.20
2018-07-02T17:39:54.527Z,101162.87
2018-07-02T17:44:47.674Z,101165.95
2018-07-02T17:49:40.740Z,101162.44
2018-07-02T17:54:33.838Z,101161.12
2018-07-02T17:59:26.854Z,101161.25
2018-07-02T18:04:20.692Z,101162.25
2018-07-02T18:09:13.814Z,101170.17
2018-07-02T18:14:06.978Z,101169.58
2018-07-02T18:19:00.016Z,101164.09
2018-07-02T18:23:53.109Z,101164.35
2018-07-02T18:28:46.050Z,101163.23
2018-07-02T18:33:39.080Z,101156.86
2018-07-02T18:38:32.097Z,101163.07
2018-07-02T18:43:25.067Z,101160.77
2018-07-02T18:48:18.118Z,101170.70
2018-07-02T18:53:11.164Z,101167.38
2018-07-02T18:58:04.407Z,101171.12
2018-07-02T19:02:57.408Z,101171.31
2018-07-02T19:07:50.414Z,101174.52
2018-07-02T19:12:43.417Z,101173.63
2018-07-02T19:17:36.421Z,101173.00
2018-07-02T19:22:29.353Z,101177.04
2018-07-02T19:27:22.336Z,101181.68
2018-07-02T19:32:15.471Z,101190.73
2018-07-02T19:37:08.542Z,101188.19
2018-07-02T19:42:01.511Z,101200.53
2018-07-02T19:46:54.559Z,101208.11
2018-07-02T19:51:47.563Z,101202.87
2018-07-02T19:56:40.815Z,101206.91
2018-07-02T20:01:33.708Z,101209.05
2018-07-02T20:06:27.194Z,101208.16
2018-07-02T20:11:20.236Z,101207.54
2018-07-02T20:16:13.247Z,101216.78
2018-07-02T20:21:06.314Z,101216.86
2018-07-02T20:25:59.420Z,101221.70
2018-07-02T20:30:52.504Z,101209.77
2018-07-02T20:35:45.479Z,101212.39
2018-07-02T20:40:38.584Z,101217.47
2018-07-02T20:45:31.737Z,101210.52
2018-07-02T20:50:24.916Z,101216.37
2018-07-02T20:55:17.907Z,101219.52
2018-07-02T21:00:11.078Z,101217.72
2018-07-02T21:05:04.654Z,101223.87
2018-07-02T21:09:57.705Z,101229.48
2018-07-02T21:14:50.695Z,101226.02
2018-07-02T21:19:43.780Z,101223.67
2018-07-02T21:24:36.737Z,101225.12
2018-07-02T21:29:29.659Z,101223.56
2018-07-02T21:34:22.832Z,101223.09
2018-07-02T21:39:15.791Z,101222.62
2018-07-02T21:44:08.905Z,101222.95
2018-07-02T21:49:01.954Z,101225.75
2018-07-02T21:53:55.055Z,101226.59
2018-07-02T21:58:48.034Z,101235.10
2018-07-02T22:03:41.043Z,101240.86
2018-07-02T22:08:34.084Z,101238.95
2018-07-02T22:13:27.125Z,101232.44
2018-07-02T22:18:20.111Z,101227.28
2018-07-02T22:23:13.067Z,101232.24
2018-07-02T22:28:06.248Z,101227.63
2018-07-02T22:33:00.142Z,101230.36
2018-07-02T22:37:53.235Z,101227.11
2018-07-02T22:42:46.245Z,101226.31
2018-07-02T22:47:39.194Z,101226.85
2018-07-02T22:52:32.186Z,101229.84
2018-07-02T22:57:25.367Z,101219.20
2018-07-02T23:02:18.257Z,101222.48
2018-07-02T23:07:11.247Z,101222.76
2018-07-02T23:12:04.440Z,101223.58
2018-07-02T23:16:57.552Z,101222.45
2018-07-02T23:21:50.558Z,101228.45
2018-07-02T23:26:43.611Z,101226.80
2018-07-02T23:31:36.675Z,101221.34
2018-07-02T23:36:29.719Z,101227.59
2018-07-02T23:41:22.690Z,101218.82
2018-07-02T23:46:15.649Z,101221.80
2018-07-02T23:51:08.620Z,101220.13
2018-07-02T23:56:01.670Z,101222.81
